PWSweather.com
Personal Weather Stations
Station Observations
IMAZOWIE6
WarszawaPL

WarszawaPL

Lat: 52.27957, Lon: 21.05489

Elevation: 100

Station Type: WS1080

http://stacjapogody.waw.pl/

High Low Average
Temperature 63.0°F17.2°C 47.5°F8.6°C 55.2°F12.9°C
Dew Point -166.5°F-110.3°C -168.1°F-111.2°C -167.3°F-110.7°C
Winds 0.6 mph 1.0 kmh Calm Calm Calm NCalm N
Wind Gusts 4.8 mph7.7 kmh -- --
Humidity - - -
Pressure 29.17 in987.8 mb 28.85 in977.0 mb -
Precipitation 0.00 in0.0 mm - -
Hour Temp Dew Point Humidity Winds Wind Gusts Pressure Precip Precip Rate Daily Precip Total
12:01 AM 47.7°F8.7°C -168.0°F-111.1°C - Calm Calm -- 29.17 in987.8 mb 0.00 in0.0 mm 0.00 in0.0 mm 0.00 in0.0 mm
12:16 AM 48.0°F8.9°C -168.0°F-111.1°C - Calm Calm 2.0 mph3.2 kmh 29.17 in987.8 mb 0.00 in0.0 mm 0.00 in0.0 mm 0.00 in0.0 mm
12:31 AM 47.8°F8.8°C -168.0°F-111.1°C - Calm Calm 0.6 mph1.0 kmh 29.17 in987.8 mb 0.00 in0.0 mm 0.00 in0.0 mm 0.00 in0.0 mm
12:46 AM 47.7°F8.7°C -168.0°F-111.1°C - Calm Calm 4.0 mph6.4 kmh 29.16 in987.5 mb 0.00 in0.0 mm 0.00 in0.0 mm 0.00 in0.0 mm
01:01 AM 47.8°F8.8°C -168.0°F-111.1°C - Calm Calm 0.6 mph1.0 kmh 29.16 in987.5 mb 0.00 in0.0 mm 0.00 in0.0 mm 0.00 in0.0 mm
01:16 AM 47.8°F8.8°C -168.0°F-111.1°C - Calm Calm 3.4 mph5.5 kmh 29.16 in987.5 mb 0.01 in0.3 mm 0.05 in1.3 mm 0.01 in0.3 mm
01:31 AM 47.7°F8.7°C -168.0°F-111.1°C - Calm Calm 2.0 mph3.2 kmh 29.15 in987.1 mb 0.01 in0.3 mm 0.00 in0.0 mm 0.01 in0.3 mm
01:46 AM 47.7°F8.7°C -168.0°F-111.1°C - Calm Calm 4.0 mph6.4 kmh 29.15 in987.1 mb 0.01 in0.3 mm 0.00 in0.0 mm 0.01 in0.3 mm
02:01 AM 47.5°F8.6°C -168.1°F-111.2°C - Calm Calm 2.0 mph3.2 kmh 29.14 in986.8 mb 0.01 in0.3 mm 0.00 in0.0 mm 0.01 in0.3 mm
02:17 AM 47.7°F8.7°C -168.0°F-111.1°C - Calm Calm 0.6 mph1.0 kmh 29.14 in986.8 mb 0.00 in0.0 mm 0.00 in0.0 mm 0.01 in0.3 mm
02:33 AM 47.5°F8.6°C -168.1°F-111.2°C - Calm Calm -- 29.13 in986.5 mb 0.00 in0.0 mm 0.00 in0.0 mm 0.01 in0.3 mm
02:49 AM 47.7°F8.7°C -168.0°F-111.1°C - Calm Calm 1.4 mph2.3 kmh 29.13 in986.5 mb 0.00 in0.0 mm 0.00 in0.0 mm 0.01 in0.3 mm
03:05 AM 47.7°F8.7°C -168.0°F-111.1°C - Calm Calm -- 29.13 in986.5 mb 0.00 in0.0 mm 0.00 in0.0 mm 0.01 in0.3 mm
03:16 AM 47.7°F8.7°C -168.0°F-111.1°C - Calm Calm 4.8 mph7.7 kmh 29.13 in986.5 mb 0.00 in0.0 mm 0.00 in0.0 mm 0.01 in0.3 mm
03:32 AM 47.7°F8.7°C -168.0°F-111.1°C - Calm Calm 0.6 mph1.0 kmh 29.12 in986.1 mb 0.00 in0.0 mm 0.00 in0.0 mm 0.01 in0.3 mm
03:48 AM 47.5°F8.6°C -168.1°F-111.2°C - Calm Calm 2.0 mph3.2 kmh 29.12 in986.1 mb 0.01 in0.3 mm 0.05 in1.3 mm 0.02 in0.5 mm
04:04 AM 47.5°F8.6°C -168.1°F-111.2°C - Calm Calm 0.6 mph1.0 kmh 29.11 in985.8 mb 0.01 in0.3 mm 0.00 in0.0 mm 0.02 in0.5 mm
04:20 AM 47.7°F8.7°C -168.0°F-111.1°C - Calm Calm 1.4 mph2.3 kmh 29.11 in985.8 mb 0.00 in0.0 mm 0.00 in0.0 mm 0.02 in0.5 mm
04:35 AM 47.7°F8.7°C -168.0°F-111.1°C - Calm Calm 0.6 mph1.0 kmh 29.11 in985.8 mb 0.00 in0.0 mm 0.00 in0.0 mm 0.02 in0.5 mm
04:50 AM 47.7°F8.7°C -168.0°F-111.1°C - Calm Calm 1.4 mph2.3 kmh 29.11 in985.8 mb 0.00 in0.0 mm 0.00 in0.0 mm 0.02 in0.5 mm
05:01 AM 47.7°F8.7°C -168.0°F-111.1°C - 0.6 mph N1.0 kmh N 4.8 mph7.7 kmh 29.11 in985.8 mb 0.00 in0.0 mm 0.00 in0.0 mm 0.02 in0.5 mm
05:16 AM 47.8°F8.8°C -168.0°F-111.1°C - Calm Calm 2.0 mph3.2 kmh 29.10 in985.4 mb 0.00 in0.0 mm 0.00 in0.0 mm 0.02 in0.5 mm
05:31 AM 47.8°F8.8°C -168.0°F-111.1°C - Calm Calm 1.4 mph2.3 kmh 29.10 in985.4 mb 0.00 in0.0 mm 0.00 in0.0 mm 0.02 in0.5 mm
05:46 AM 47.8°F8.8°C -168.0°F-111.1°C - Calm Calm -- 29.10 in985.4 mb 0.00 in0.0 mm 0.00 in0.0 mm 0.02 in0.5 mm
06:01 AM 47.8°F8.8°C -168.0°F-111.1°C - Calm Calm 1.4 mph2.3 kmh 29.09 in985.1 mb 0.00 in0.0 mm 0.00 in0.0 mm 0.02 in0.5 mm
06:16 AM 48.0°F8.9°C -168.0°F-111.1°C - Calm Calm -- 29.09 in985.1 mb 0.00 in0.0 mm 0.00 in0.0 mm 0.02 in0.5 mm
06:31 AM 48.2°F9.0°C -168.0°F-111.1°C - Calm Calm 0.6 mph1.0 kmh 29.08 in984.8 mb 0.00 in0.0 mm 0.00 in0.0 mm 0.02 in0.5 mm
06:46 AM 48.4°F9.1°C -168.0°F-111.1°C - Calm Calm -- 29.08 in984.8 mb 0.00 in0.0 mm 0.00 in0.0 mm 0.02 in0.5 mm
07:01 AM 48.7°F9.3°C -167.9°F-111.1°C - Calm Calm -- 29.08 in984.8 mb 0.00 in0.0 mm 0.00 in0.0 mm 0.02 in0.5 mm
07:16 AM 48.9°F9.4°C -167.9°F-111.1°C - Calm Calm -- 29.08 in984.8 mb 0.00 in0.0 mm 0.00 in0.0 mm 0.02 in0.5 mm
07:31 AM 49.3°F9.6°C -167.9°F-111.1°C - Calm Calm -- 29.09 in985.1 mb 0.00 in0.0 mm 0.00 in0.0 mm 0.02 in0.5 mm
07:46 AM 49.5°F9.7°C -167.9°F-111.1°C - Calm Calm -- 29.08 in984.8 mb 0.00 in0.0 mm 0.00 in0.0 mm 0.02 in0.5 mm
08:01 AM 49.8°F9.9°C -167.8°F-111.0°C - Calm Calm -- 29.09 in985.1 mb 0.00 in0.0 mm 0.00 in0.0 mm 0.02 in0.5 mm
08:16 AM 50.4°F10.2°C -167.8°F-111.0°C - Calm Calm -- 29.08 in984.8 mb 0.00 in0.0 mm 0.00 in0.0 mm 0.02 in0.5 mm
08:31 AM 50.7°F10.4°C -167.7°F-110.9°C - Calm Calm -- 29.08 in984.8 mb 0.00 in0.0 mm 0.00 in0.0 mm 0.02 in0.5 mm
08:46 AM 51.4°F10.8°C -167.7°F-110.9°C - Calm Calm -- 29.08 in984.8 mb 0.00 in0.0 mm 0.00 in0.0 mm 0.02 in0.5 mm
09:01 AM 52.0°F11.1°C -167.6°F-110.9°C - Calm Calm 0.6 mph1.0 kmh 29.07 in984.4 mb 0.00 in0.0 mm 0.00 in0.0 mm 0.02 in0.5 mm
09:16 AM 54.7°F12.6°C -167.3°F-110.7°C - Calm Calm -- 29.07 in984.4 mb 0.00 in0.0 mm 0.00 in0.0 mm 0.02 in0.5 mm
09:31 AM 60.4°F15.8°C -166.8°F-110.4°C - Calm Calm -- 29.06 in984.1 mb 0.00 in0.0 mm 0.00 in0.0 mm 0.02 in0.5 mm
09:46 AM 62.6°F17.0°C -166.5°F-110.3°C - Calm Calm -- 29.05 in983.7 mb 0.00 in0.0 mm 0.00 in0.0 mm 0.02 in0.5 mm
10:01 AM 62.8°F17.1°C -166.5°F-110.3°C - Calm Calm -- 29.05 in983.7 mb 0.00 in0.0 mm 0.00 in0.0 mm 0.02 in0.5 mm
10:16 AM 62.6°F17.0°C -166.5°F-110.3°C - Calm Calm -- 29.04 in983.4 mb 0.00 in0.0 mm 0.00 in0.0 mm 0.02 in0.5 mm
10:31 AM 63.0°F17.2°C -166.5°F-110.3°C - Calm Calm -- 29.03 in983.1 mb 0.00 in0.0 mm 0.00 in0.0 mm 0.02 in0.5 mm
10:46 AM 60.4°F15.8°C -166.8°F-110.4°C - Calm Calm -- 29.03 in983.1 mb 0.00 in0.0 mm 0.00 in0.0 mm 0.02 in0.5 mm
11:01 AM 60.1°F15.6°C -166.8°F-110.4°C - Calm Calm -- 29.02 in982.7 mb 0.00 in0.0 mm 0.00 in0.0 mm 0.02 in0.5 mm
11:16 AM 60.1°F15.6°C -166.8°F-110.4°C - Calm Calm -- 29.00 in982.1 mb 0.00 in0.0 mm 0.00 in0.0 mm 0.02 in0.5 mm
11:31 AM 60.1°F15.6°C -166.8°F-110.4°C - Calm Calm 0.6 mph1.0 kmh 29.00 in982.1 mb 0.00 in0.0 mm 0.00 in0.0 mm 0.02 in0.5 mm
11:46 AM 60.4°F15.8°C -166.8°F-110.4°C - Calm Calm -- 28.99 in981.7 mb 0.00 in0.0 mm 0.00 in0.0 mm 0.02 in0.5 mm
12:01 PM 61.2°F16.2°C -166.7°F-110.4°C - Calm Calm -- 28.99 in981.7 mb 0.00 in0.0 mm 0.00 in0.0 mm 0.02 in0.5 mm
12:16 PM 61.3°F16.3°C -166.7°F-110.4°C - Calm Calm -- 28.98 in981.4 mb 0.00 in0.0 mm 0.00 in0.0 mm 0.02 in0.5 mm
12:31 PM 61.7°F16.5°C -166.6°F-110.3°C - Calm Calm -- 28.97 in981.0 mb 0.00 in0.0 mm 0.00 in0.0 mm 0.02 in0.5 mm
12:46 PM 61.7°F16.5°C -166.6°F-110.3°C - Calm Calm -- 28.97 in981.0 mb 0.00 in0.0 mm 0.00 in0.0 mm 0.02 in0.5 mm
01:01 PM 61.3°F16.3°C -166.7°F-110.4°C - Calm Calm -- 28.96 in980.7 mb 0.00 in0.0 mm 0.00 in0.0 mm 0.02 in0.5 mm
01:16 PM 60.6°F15.9°C -166.7°F-110.4°C - Calm Calm -- 28.96 in980.7 mb 0.00 in0.0 mm 0.00 in0.0 mm 0.02 in0.5 mm
01:31 PM 60.3°F15.7°C -166.8°F-110.4°C - Calm Calm -- 28.95 in980.4 mb 0.00 in0.0 mm 0.00 in0.0 mm 0.02 in0.5 mm
01:46 PM 61.0°F16.1°C -166.7°F-110.4°C - Calm Calm -- 28.94 in980.0 mb 0.00 in0.0 mm 0.00 in0.0 mm 0.02 in0.5 mm
02:01 PM 61.7°F16.5°C -166.6°F-110.3°C - Calm Calm -- 28.93 in979.7 mb 0.00 in0.0 mm 0.00 in0.0 mm 0.02 in0.5 mm
02:16 PM 61.7°F16.5°C -166.6°F-110.3°C - Calm Calm -- 28.93 in979.7 mb 0.00 in0.0 mm 0.00 in0.0 mm 0.02 in0.5 mm
02:31 PM 61.7°F16.5°C -166.6°F-110.3°C - Calm Calm -- 28.92 in979.3 mb 0.00 in0.0 mm 0.00 in0.0 mm 0.02 in0.5 mm
02:46 PM 61.2°F16.2°C -166.7°F-110.4°C - Calm Calm -- 28.92 in979.3 mb 0.01 in0.3 mm 0.05 in1.3 mm 0.04 in1.0 mm
03:01 PM 61.5°F16.4°C -166.6°F-110.3°C - Calm Calm 0.6 mph1.0 kmh 28.92 in979.3 mb 0.01 in0.3 mm 0.00 in0.0 mm 0.04 in1.0 mm
03:16 PM 61.3°F16.3°C -166.7°F-110.4°C - Calm Calm -- 28.92 in979.3 mb 0.00 in0.0 mm 0.00 in0.0 mm 0.04 in1.0 mm
03:31 PM 61.3°F16.3°C -166.7°F-110.4°C - Calm Calm -- 28.92 in979.3 mb 0.00 in0.0 mm 0.00 in0.0 mm 0.04 in1.0 mm
03:46 PM 61.0°F16.1°C -166.7°F-110.4°C - Calm Calm -- 28.91 in979.0 mb 0.00 in0.0 mm 0.00 in0.0 mm 0.04 in1.0 mm
04:01 PM 61.0°F16.1°C -166.7°F-110.4°C - Calm Calm -- 28.91 in979.0 mb 0.00 in0.0 mm 0.00 in0.0 mm 0.04 in1.0 mm
04:16 PM 60.8°F16.0°C -166.7°F-110.4°C - Calm Calm -- 28.91 in979.0 mb 0.00 in0.0 mm 0.00 in0.0 mm 0.04 in1.0 mm
04:31 PM 60.3°F15.7°C -166.8°F-110.4°C - Calm Calm -- 28.90 in978.7 mb 0.00 in0.0 mm 0.00 in0.0 mm 0.04 in1.0 mm
04:46 PM 60.1°F15.6°C -166.8°F-110.4°C - Calm Calm -- 28.90 in978.7 mb 0.00 in0.0 mm 0.00 in0.0 mm 0.04 in1.0 mm
05:01 PM 60.3°F15.7°C -166.8°F-110.4°C - Calm Calm -- 28.88 in978.0 mb 0.00 in0.0 mm 0.00 in0.0 mm 0.04 in1.0 mm
05:16 PM 59.9°F15.5°C -166.8°F-110.4°C - Calm Calm -- 28.88 in978.0 mb 0.00 in0.0 mm 0.00 in0.0 mm 0.04 in1.0 mm
05:31 PM 59.9°F15.5°C -166.8°F-110.4°C - Calm Calm -- 28.87 in977.7 mb 0.00 in0.0 mm 0.00 in0.0 mm 0.04 in1.0 mm
05:46 PM 59.7°F15.4°C -166.8°F-110.4°C - Calm Calm -- 28.87 in977.7 mb 0.00 in0.0 mm 0.00 in0.0 mm 0.04 in1.0 mm
06:01 PM 59.5°F15.3°C -166.8°F-110.4°C - Calm Calm -- 28.86 in977.3 mb 0.00 in0.0 mm 0.00 in0.0 mm 0.04 in1.0 mm
06:16 PM 59.0°F15.0°C -166.9°F-110.5°C - Calm Calm -- 28.87 in977.7 mb 0.00 in0.0 mm 0.00 in0.0 mm 0.04 in1.0 mm
06:31 PM 58.6°F14.8°C -166.9°F-110.5°C - Calm Calm -- 28.86 in977.3 mb 0.00 in0.0 mm 0.00 in0.0 mm 0.04 in1.0 mm
06:46 PM 58.5°F14.7°C -167.0°F-110.6°C - Calm Calm -- 28.86 in977.3 mb 0.00 in0.0 mm 0.00 in0.0 mm 0.04 in1.0 mm
07:01 PM 58.3°F14.6°C -167.0°F-110.6°C - Calm Calm -- 28.86 in977.3 mb 0.00 in0.0 mm 0.00 in0.0 mm 0.04 in1.0 mm
07:16 PM 58.5°F14.7°C -167.0°F-110.6°C - Calm Calm -- 28.86 in977.3 mb 0.00 in0.0 mm 0.00 in0.0 mm 0.04 in1.0 mm
07:31 PM 58.5°F14.7°C -167.0°F-110.6°C - Calm Calm -- 28.86 in977.3 mb 0.00 in0.0 mm 0.00 in0.0 mm 0.04 in1.0 mm
07:46 PM 59.0°F15.0°C -166.9°F-110.5°C - Calm Calm -- 28.86 in977.3 mb 0.00 in0.0 mm 0.00 in0.0 mm 0.04 in1.0 mm
08:01 PM 59.2°F15.1°C -166.9°F-110.5°C - Calm Calm -- 28.86 in977.3 mb 0.00 in0.0 mm 0.00 in0.0 mm 0.04 in1.0 mm
08:16 PM 59.4°F15.2°C -166.9°F-110.5°C - Calm Calm -- 28.85 in977.0 mb 0.00 in0.0 mm 0.00 in0.0 mm 0.04 in1.0 mm
08:31 PM 59.0°F15.0°C -166.9°F-110.5°C - Calm Calm -- 28.85 in977.0 mb 0.00 in0.0 mm 0.00 in0.0 mm 0.04 in1.0 mm
08:46 PM 58.8°F14.9°C -166.9°F-110.5°C - Calm Calm -- 28.85 in977.0 mb 0.00 in0.0 mm 0.00 in0.0 mm 0.04 in1.0 mm
09:01 PM 58.5°F14.7°C -167.0°F-110.6°C - Calm Calm -- 28.85 in977.0 mb 0.00 in0.0 mm 0.00 in0.0 mm 0.04 in1.0 mm
09:16 PM 57.7°F14.3°C -167.0°F-110.6°C - Calm Calm -- 28.86 in977.3 mb 0.00 in0.0 mm 0.00 in0.0 mm 0.04 in1.0 mm
09:31 PM 56.8°F13.8°C -167.1°F-110.6°C - Calm Calm -- 28.85 in977.0 mb 0.00 in0.0 mm 0.00 in0.0 mm 0.04 in1.0 mm
09:46 PM 56.7°F13.7°C -167.1°F-110.6°C - Calm Calm -- 28.86 in977.3 mb 0.00 in0.0 mm 0.00 in0.0 mm 0.04 in1.0 mm
10:01 PM 56.1°F13.4°C -167.2°F-110.7°C - Calm Calm -- 28.86 in977.3 mb 0.00 in0.0 mm 0.00 in0.0 mm 0.04 in1.0 mm
10:16 PM 55.9°F13.3°C -167.2°F-110.7°C - Calm Calm -- 28.87 in977.7 mb 0.00 in0.0 mm 0.00 in0.0 mm 0.04 in1.0 mm
10:31 PM 55.9°F13.3°C -167.2°F-110.7°C - Calm Calm -- 28.86 in977.3 mb 0.00 in0.0 mm 0.00 in0.0 mm 0.04 in1.0 mm
10:46 PM 55.8°F13.2°C -167.2°F-110.7°C - Calm Calm -- 28.86 in977.3 mb 0.00 in0.0 mm 0.00 in0.0 mm 0.04 in1.0 mm
11:01 PM 55.2°F12.9°C -167.3°F-110.7°C - Calm Calm -- 28.87 in977.7 mb 0.00 in0.0 mm 0.00 in0.0 mm 0.04 in1.0 mm
11:16 PM 54.9°F12.7°C -167.3°F-110.7°C - Calm Calm -- 28.87 in977.7 mb 0.00 in0.0 mm 0.00 in0.0 mm 0.04 in1.0 mm
11:31 PM 54.5°F12.5°C -167.4°F-110.8°C - Calm Calm -- 28.87 in977.7 mb 0.00 in0.0 mm 0.00 in0.0 mm 0.04 in1.0 mm
11:46 PM 54.5°F12.5°C -167.4°F-110.8°C - Calm Calm -- 28.87 in977.7 mb 0.00 in0.0 mm 0.00 in0.0 mm 0.04 in1.0 mm